Time,TemperatureF,DewpointF,PressureIn,WindDirection,WindDirectionDegrees,WindSpeedMPH,WindSpeedGustMPH,Humidity,HourlyPrecipIn,Conditions,Clouds,dailyrainin,SoftwareType,DateUTC
2014-08-27 00:02:00,64.0,46.0,30.08,South,171,0.0,0.0,52,0.00,,,0.00,,2014-08-27 06:02:00,
2014-08-27 00:12:00,64.0,46.0,30.08,South,171,0.0,0.0,52,0.00,,,0.00,,2014-08-27 06:12:00,
2014-08-27 00:52:00,61.0,46.0,30.10,South,171,0.0,0.0,57,0.00,,,0.00,,2014-08-27 06:52:00,
2014-08-27 01:02:00,61.0,46.0,30.10,South,171,0.0,0.0,57,0.00,,,0.00,,2014-08-27 07:02:00,
2014-08-27 01:12:00,61.0,46.0,30.10,South,171,0.0,0.0,57,0.00,,,0.00,,2014-08-27 07:12:00,
2014-08-27 01:53:00,59.0,46.0,30.11,South,171,0.0,0.0,63,0.00,,,0.00,,2014-08-27 07:53:00,
2014-08-27 02:22:00,58.0,46.0,30.11,South,171,0.0,0.0,64,0.00,,,0.00,,2014-08-27 08:22:00,
2014-08-27 02:42:00,57.0,45.0,30.11,South,171,0.0,0.0,65,0.00,,,0.00,,2014-08-27 08:42:00,
2014-08-27 02:52:00,57.0,45.0,30.11,South,171,0.0,0.0,65,0.00,,,0.00,,2014-08-27 08:52:00,
2014-08-27 03:02:00,57.0,45.0,30.11,South,171,0.0,0.0,65,0.00,,,0.00,,2014-08-27 09:02:00,
2014-08-27 03:24:00,56.0,45.0,30.11,South,171,0.0,0.0,67,0.00,,,0.00,,2014-08-27 09:24:00,
2014-08-27 03:54:00,54.0,44.0,30.11,South,171,0.0,0.0,68,0.00,,,0.00,,2014-08-27 09:54:00,
2014-08-27 04:13:00,54.0,44.0,30.12,South,171,0.0,0.0,68,0.00,,,0.00,,2014-08-27 10:13:00,
2014-08-27 04:23:00,54.0,44.0,30.12,South,171,0.0,0.0,68,0.00,,,0.00,,2014-08-27 10:23:00,
2014-08-27 04:33:00,54.0,44.0,30.12,South,171,0.0,0.0,68,0.00,,,0.00,,2014-08-27 10:33:00,
2014-08-27 04:53:00,53.0,44.0,30.12,South,171,0.0,0.0,71,0.00,,,0.00,,2014-08-27 10:53:00,
2014-08-27 05:03:00,53.0,44.0,30.12,South,171,0.0,0.0,71,0.00,,,0.00,,2014-08-27 11:03:00,
2014-08-27 05:23:00,53.0,44.0,30.12,South,171,0.0,0.0,71,0.00,,,0.00,,2014-08-27 11:23:00,
2014-08-27 05:52:00,51.0,43.0,30.13,South,171,0.0,0.0,74,0.00,,,0.00,,2014-08-27 11:52:00,
2014-08-27 06:12:00,51.0,43.0,30.13,South,171,0.0,0.0,74,0.00,,,0.00,,2014-08-27 12:12:00,
2014-08-27 07:53:00,49.0,43.0,30.17,South,171,0.0,0.0,81,0.00,,,0.00,,2014-08-27 13:53:00,
2014-08-27 08:20:00,49.0,44.0,30.18,South,171,0.0,0.0,82,0.00,,,0.00,,2014-08-27 14:20:00,
2014-08-27 08:22:00,49.0,44.0,30.19,South,171,0.0,0.0,83,0.00,,,0.00,,2014-08-27 14:22:00,
2014-08-27 08:33:00,49.0,44.0,30.19,South,171,0.0,0.0,83,0.00,,,0.00,,2014-08-27 14:33:00,
2014-08-27 08:52:00,49.0,44.0,30.18,South,171,0.0,0.0,82,0.00,,,0.00,,2014-08-27 14:52:00,
2014-08-27 09:02:00,49.0,44.0,30.18,South,171,0.0,0.0,82,0.00,,,0.00,,2014-08-27 15:02:00,
2014-08-27 09:13:00,49.0,44.0,30.18,South,171,0.0,0.0,82,0.00,,,0.00,,2014-08-27 15:13:00,
2014-08-27 09:54:00,55.0,47.0,30.19,SSW,211,0.0,3.0,73,0.00,,,0.00,,2014-08-27 15:54:00,
2014-08-27 10:23:00,59.0,48.0,30.18,South,184,0.0,3.0,66,0.00,,,0.00,,2014-08-27 16:23:00,
2014-08-27 10:33:00,59.0,48.0,30.18,South,184,0.0,3.0,66,0.00,,,0.00,,2014-08-27 16:33:00,
2014-08-27 10:43:00,59.0,48.0,30.18,South,184,0.0,3.0,66,0.00,,,0.00,,2014-08-27 16:43:00,
2014-08-27 10:54:00,59.0,48.0,30.18,South,184,0.0,3.0,66,0.00,,,0.00,,2014-08-27 16:54:00,
2014-08-27 11:20:00,67.0,47.0,30.16,South,175,1.0,4.0,49,0.00,,,0.00,,2014-08-27 17:20:00,
2014-08-27 11:23:00,63.0,48.0,30.18,SSE,168,1.0,3.0,58,0.00,,,0.00,,2014-08-27 17:23:00,
2014-08-27 11:54:00,67.0,47.0,30.16,South,175,1.0,4.0,49,0.00,,,0.00,,2014-08-27 17:54:00,
2014-08-27 12:03:00,67.0,47.0,30.16,South,175,1.0,4.0,49,0.00,,,0.00,,2014-08-27 18:03:00,
2014-08-27 12:13:00,67.0,47.0,30.16,South,175,1.0,4.0,49,0.00,,,0.00,,2014-08-27 18:13:00,
2014-08-27 13:22:00,80.0,48.0,30.11,South,182,0.0,6.0,33,0.00,,,0.00,,2014-08-27 19:22:00,
2014-08-27 13:32:00,80.0,48.0,30.11,South,182,0.0,6.0,33,0.00,,,0.00,,2014-08-27 19:32:00,
2014-08-27 13:52:00,82.0,48.0,30.11,South,172,1.0,4.0,31,0.00,,,0.00,,2014-08-27 19:52:00,
2014-08-27 14:23:00,86.0,49.0,30.09,SSE,155,1.0,4.0,28,0.00,,,0.00,,2014-08-27 20:23:00,
2014-08-27 14:52:00,87.0,46.0,30.08,South,182,6.0,12.0,24,0.00,,,0.00,,2014-08-27 20:52:00,